PRINT OUT SECTION, show ยป

METAR EPBY 212200Z 06008KT CAVOK 19/14 Q1011=

METAR EPGD 212200Z 06007KT CAVOK 16/13 Q1014 =

METAR EPKK 212200Z 05005KT CAVOK 18/13 Q1009 =

METAR EPKT 212200Z 07007KT CAVOK 16/13 Q1009 =

METAR EPLB 212200Z 07004KT CAVOK 16/14 Q1012 =

METAR EPLL 212200Z 08008KT CAVOK 19/11 Q1011 =

METAR EPML 212200Z NIL=

METAR EPMO 212200Z 07008KT CAVOK 17/12 Q1013 =

METAR EPPO 212200Z 06010KT CAVOK 20/12 Q1010 =

METAR EPRA 212200Z 08007KT CAVOK 17/12 Q1012=

METAR EPRZ 212200Z 09005KT CAVOK 17/14 Q1011 =

METAR EPSC 212200Z 06008KT 030V090 CAVOK 20/14 Q1010 =

METAR EPSY 212200Z 06003KT 020V140 CAVOK 17/12 Q1014=

METAR EPWA 212200Z 10010KT CAVOK 20/12 Q1012 NOSIG=

METAR EPWR 212200Z 07006KT CAVOK 22/13 Q1008 =

METAR EPZG 212200Z NIL=
 METAR EPML
:Brak depeszy METAR z EPML Mielec z dnia 21 z godziny 22:00 UTC